Meteo Giornale » Osservazioni meteo Stati Uniti (USA) » Sioux Falls Foss Fld
ore: 09:56 - Osservazioni Meteo Sioux Falls Foss Fld
Lat. 43° 34' N Lon. 96° 45' W Alt. 435 metri s.l.m.
23 °C
Pioggia
Temp. 24 Ore
18 °C
33 °C
Nord
0 Km/h
Dew point 18 °C
Umidità 73 %
Visibilità 10 Km
Il sole sorge alle ore 06:51
Il sole tramonta alle ore 20:02
| Data e Ora | Cielo e Fenomeni | T °C | DP °C | Um. % | Pres. hPa | Vis. km | Vento km/h | |
|---|---|---|---|---|---|---|---|---|
| Oggi h: 09:56 | Pioggia | 23 | 18 | 73 | 1015 | 10 | N 0 | |
| Oggi h: 08:56 | Coperto | 22 | 17 | 73 | 1015 | 10 | N 0 | |
| Oggi h: 07:56 | Coperto | 19 | 17 | 88 | 1015 | 10 | N/NE 11.1 | |
| Oggi h: 06:56 | Molto Nuvoloso | 18 | 17 | 93 | 1014 | 10 | N 13 | |
| Oggi h: 05:56 | Coperto | 18 | 17 | 93 | 1015 | 10 | N 0 | |
| Oggi h: 04:56 | Coperto | 18 | 16 | 88 | 1015 | 10 | N 0 | |
| Oggi h: 03:56 | Sereno | 18 | 17 | 93 | 1014 | 10 | N 0 | |
| Oggi h: 02:56 | Sereno | 18 | 17 | 93 | 1014 | 10 | N/NE 7.4 | |
| Oggi h: 01:56 | Sereno | 19 | 16 | 82 | 1014 | 10 | N 0 | |
| Oggi h: 00:56 | Sereno | 20 | 17 | 82 | 1015 | 10 | N 0 | |
| Ieri h: 23:56 | Nuvoloso | 20 | 17 | 82 | 1014 | 10 | N 0 | |
| Ieri h: 22:56 | Sereno | 22 | 17 | 73 | 1014 | 10 | N 0 | |
| Ieri h: 21:56 | Sereno | 25 | 17 | 61 | 1014 | 10 | S 7.4 | |
| Ieri h: 20:56 | Poco Nuvoloso | 27 | 16 | 50 | 1013 | 10 | S/SE 9.3 | |
| Ieri h: 19:56 | Nuvoloso | 28 | 15 | 45 | 1012 | 10 | S/SE 14.8 | |
| Ieri h: 18:56 | Nuvoloso | 32 | 14 | 33 | 1012 | 10 | N 0 | |
| Ieri h: 17:56 | Nuvoloso | 32 | 11 | 27 | 1012 | 10 | S/SO 9.3 | |
| Ieri h: 16:56 | Nuvoloso | 33 | 10 | 24 | 1012 | 10 | S/SE 13 | |
| Ieri h: 15:56 | Nuvoloso | 33 | 14 | 31 | 1013 | 10 | N 0 | |
| Ieri h: 14:56 | Nuvoloso | 32 | 14 | 33 | 1013 | 10 | O 7.4 | |
| Ieri h: 13:56 | Nuvoloso | 31 | 12 | 31 | 1013 | 10 | N/NE 9.3 | |
| Ieri h: 12:56 | Nuvoloso | 29 | 16 | 45 | 1014 | 10 | N 7.4 | |
| Ieri h: 11:56 | Poco Nuvoloso | 27 | 17 | 54 | 1014 | 10 | N 5.5 | |
| Ieri h: 10:56 | Nuvoloso | 24 | 18 | 69 | 1014 | 10 | N 7.4 | |



